Time;durP1;ratioP1;P1;durP2;ratioP2;P2;SDS_P1;SDS_P2;PMS_P1;PMS_P2;Temp;Humidity;BMP_temperature;BMP_pressure;BME280_temperature;BME280_humidity;BME280_pressure;Samples;Min_cycle;Max_cycle;Signal;HPM_P1;HPM_P2
2022/04/24 00:01:13;;;;;;;13.70;12.30;;;11.40;54.30;;;;;;5033660;28;20211;-78
2022/04/24 00:03:40;;;;;;;15.48;13.27;;;11.40;54.50;;;;;;5033861;28;20213;-78
2022/04/24 00:06:09;;;;;;;13.75;11.68;;;11.30;54.70;;;;;;5033718;28;20714;-79
2022/04/24 00:08:35;;;;;;;13.60;12.20;;;11.30;55.10;;;;;;5036018;28;20219;-78
2022/04/24 00:11:02;;;;;;;17.65;12.30;;;11.30;55.20;;;;;;5036410;28;20574;-78
2022/04/24 00:13:37;;;;;;;15.90;13.23;;;11.20;55.30;;;;;;5036453;28;20293;-78
2022/04/24 00:16:04;;;;;;;14.65;12.80;;;11.20;55.60;;;;;;5035217;28;20337;-78
2022/04/24 00:18:31;;;;;;;14.15;12.55;;;11.20;55.70;;;;;;5035134;28;20218;-78
2022/04/24 00:21:01;;;;;;;15.50;12.27;;;11.20;55.60;;;;;;5034299;28;20238;-79
2022/04/24 00:23:29;;;;;;;15.85;11.90;;;11.30;55.20;;;;;;5034388;28;20239;-78
2022/04/24 00:25:56;;;;;;;17.55;12.30;;;11.30;55.90;;;;;;5035300;28;20250;-79
2022/04/24 00:28:23;;;;;;;13.40;12.00;;;11.30;55.00;;;;;;5033923;28;20308;-78
2022/04/24 00:30:50;;;;;;;13.00;11.18;;;11.30;55.00;;;;;;5034500;28;20231;-78
2022/04/24 00:33:17;;;;;;;16.40;13.30;;;11.20;55.10;;;;;;5037850;28;20286;-78
2022/04/24 00:35:45;;;;;;;12.75;11.45;;;11.20;55.20;;;;;;5040405;28;20807;-78
2022/04/24 00:38:11;;;;;;;13.50;12.10;;;11.20;55.10;;;;;;5051455;28;20221;-77
2022/04/24 00:40:40;;;;;;;13.82;12.32;;;11.10;55.50;;;;;;5054259;28;20298;-77
2022/04/24 00:43:07;;;;;;;13.68;11.82;;;11.20;55.50;;;;;;5057218;28;20219;-77
2022/04/24 00:45:34;;;;;;;13.38;11.98;;;11.10;55.40;;;;;;5059975;28;20222;-78
2022/04/24 00:48:01;;;;;;;12.38;11.07;;;11.10;55.30;;;;;;5060743;28;20652;-78
2022/04/24 00:50:28;;;;;;;13.43;11.77;;;11.10;55.70;;;;;;5060328;28;20203;-79
2022/04/24 00:52:55;;;;;;;13.65;12.00;;;11.10;55.70;;;;;;5055050;28;20202;-78
2022/04/24 00:55:24;;;;;;;14.68;11.77;;;11.10;55.60;;;;;;5049148;28;20368;-77
2022/04/24 00:57:52;;;;;;;12.85;11.23;;;11.10;55.70;;;;;;5045474;28;20247;-77
2022/04/24 01:00:20;;;;;;;13.90;12.30;;;11.10;55.60;;;;;;5043040;28;20242;-77
2022/04/24 01:02:46;;;;;;;11.95;10.73;;;11.10;55.70;;;;;;5042478;28;20210;-78
2022/04/24 01:05:16;;;;;;;13.10;11.27;;;11.10;55.70;;;;;;5040894;28;20223;-78
2022/04/24 01:07:42;;;;;;;12.68;11.20;;;11.10;55.60;;;;;;5036780;28;20207;-78
2022/04/24 01:10:09;;;;;;;13.25;11.88;;;11.10;55.80;;;;;;5036180;28;20297;-78
2022/04/24 01:12:37;;;;;;;12.95;10.70;;;11.10;55.90;;;;;;5036342;28;20210;-78
2022/04/24 01:15:07;;;;;;;13.20;11.75;;;11.00;56.30;;;;;;5041169;28;20263;-78
2022/04/24 01:17:34;;;;;;;15.07;11.27;;;11.10;56.40;;;;;;5042011;28;20698;-78
2022/04/24 01:20:01;;;;;;;14.35;12.23;;;11.10;56.60;;;;;;5041714;28;20582;-77
2022/04/24 01:22:29;;;;;;;13.13;11.00;;;11.00;56.80;;;;;;5044930;28;20229;-78
2022/04/24 01:24:56;;;;;;;16.38;11.32;;;11.10;56.60;;;;;;5056266;28;20211;-77
2022/04/24 01:27:23;;;;;;;14.45;11.95;;;11.10;56.40;;;;;;5058175;28;20210;-78
2022/04/24 01:29:51;;;;;;;13.50;12.10;;;11.10;56.30;;;;;;5058579;28;20207;-78
2022/04/24 01:32:18;;;;;;;12.35;11.05;;;11.10;56.60;;;;;;5054050;28;20218;-76
2022/04/24 01:34:45;;;;;;;13.20;11.60;;;11.20;56.60;;;;;;5042151;28;20211;-76
2022/04/24 01:37:12;;;;;;;12.20;10.90;;;11.20;56.60;;;;;;5040882;28;20306;-77
2022/04/24 01:39:40;;;;;;;12.57;11.20;;;11.20;56.40;;;;;;5046674;28;20203;-77
2022/04/24 01:42:07;;;;;;;13.50;11.05;;;11.20;55.90;;;;;;5046853;28;20213;-78
2022/04/24 01:44:34;;;;;;;13.98;12.55;;;11.20;56.00;;;;;;5037543;28;20219;-77
2022/04/24 01:47:01;;;;;;;13.57;11.40;;;11.20;55.90;;;;;;5038018;28;20579;-78
2022/04/24 01:49:28;;;;;;;11.90;10.63;;;11.30;56.00;;;;;;5045252;28;20268;-79
2022/04/24 01:51:55;;;;;;;13.02;11.63;;;11.30;56.10;;;;;;5037191;28;20208;-78
2022/04/24 01:54:22;;;;;;;11.70;10.50;;;11.30;55.90;;;;;;5035244;28;20295;-78
2022/04/24 01:56:50;;;;;;;13.63;11.43;;;11.20;55.80;;;;;;5035470;28;20231;-78
2022/04/24 01:59:17;;;;;;;13.32;11.57;;;11.20;56.10;;;;;;5036673;28;20249;-78
2022/04/24 02:01:44;;;;;;;11.40;10.23;;;11.20;56.30;;;;;;5035468;28;20203;-75
2022/04/24 02:04:11;;;;;;;12.05;10.85;;;11.20;56.50;;;;;;5035174;28;20219;-77
2022/04/24 02:06:38;;;;;;;13.07;11.77;;;11.20;56.60;;;;;;5035078;28;20219;-76
2022/04/24 02:09:04;;;;;;;11.43;10.32;;;11.20;56.60;;;;;;5035401;28;20211;-77
2022/04/24 02:11:31;;;;;;;13.60;11.35;;;11.30;56.80;;;;;;5035585;28;20221;-76
2022/04/24 02:13:59;;;;;;;11.00;9.95;;;11.40;56.60;;;;;;5035812;28;20622;-77
2022/04/24 02:16:26;;;;;;;13.07;11.23;;;11.50;56.00;;;;;;5035827;28;20634;-77
2022/04/24 02:18:53;;;;;;;13.48;10.70;;;11.50;55.90;;;;;;5036210;28;20211;-77
2022/04/24 02:21:20;;;;;;;11.63;10.40;;;11.50;55.90;;;;;;5035047;28;20237;-77
2022/04/24 02:23:47;;;;;;;12.95;10.70;;;11.60;56.10;;;;;;5035496;28;20279;-77
2022/04/24 02:26:14;;;;;;;12.15;10.95;;;11.60;56.40;;;;;;5035643;28;20306;-77
2022/04/24 02:28:41;;;;;;;12.88;11.50;;;11.40;56.00;;;;;;5036387;28;20191;-77
2022/04/24 02:31:09;;;;;;;14.27;12.63;;;11.30;56.50;;;;;;5035975;28;20216;-78
2022/04/24 02:33:36;;;;;;;12.55;10.88;;;11.30;57.30;;;;;;5036719;28;20207;-78
2022/04/24 02:36:04;;;;;;;13.15;11.80;;;11.20;58.80;;;;;;5036996;28;20230;-77
2022/04/24 02:38:31;;;;;;;12.38;11.07;;;11.20;59.10;;;;;;5037141;28;20298;-78
2022/04/24 02:40:58;;;;;;;12.95;11.25;;;11.10;60.30;;;;;;5035737;28;20208;-78
2022/04/24 02:43:25;;;;;;;15.43;12.32;;;11.10;60.80;;;;;;5036688;28;20258;-78
2022/04/24 02:45:52;;;;;;;13.82;12.35;;;11.10;61.20;;;;;;5037809;28;20573;-79
2022/04/24 02:48:22;;;;;;;13.82;12.30;;;11.10;62.60;;;;;;5055413;28;20203;-79
2022/04/24 02:50:49;;;;;;;13.38;11.98;;;11.10;62.60;;;;;;5057069;28;20203;-78
2022/04/24 02:53:16;;;;;;;14.90;12.38;;;11.20;63.20;;;;;;5053078;28;20211;-76
2022/04/24 02:55:42;;;;;;;15.43;12.57;;;11.10;62.40;;;;;;5040669;28;20238;-77
2022/04/24 02:58:09;;;;;;;14.55;12.55;;;11.10;62.60;;;;;;5057562;28;20257;-78
2022/04/24 03:00:49;;;;;;;14.40;12.82;;;11.10;61.60;;;;;;5055667;28;20199;-78
2022/04/24 03:03:18;;;;;;;13.65;12.23;;;11.10;62.70;;;;;;5035194;28;20199;-77
2022/04/24 03:05:47;;;;;;;14.05;12.63;;;11.10;63.60;;;;;;5035576;28;20263;-77
2022/04/24 03:08:14;;;;;;;14.30;12.85;;;11.20;63.90;;;;;;5034549;28;20290;-77
2022/04/24 03:10:41;;;;;;;14.50;12.75;;;11.10;63.00;;;;;;5045290;28;20283;-77
2022/04/24 03:13:08;;;;;;;13.45;12.00;;;11.10;63.60;;;;;;5041762;28;20209;-78
2022/04/24 03:15:36;;;;;;;14.23;12.82;;;11.20;63.80;;;;;;5038432;28;20626;-77
2022/04/24 03:18:04;;;;;;;15.05;12.63;;;11.20;63.00;;;;;;5051203;28;20280;-78
2022/04/24 03:20:31;;;;;;;13.73;11.98;;;11.30;62.40;;;;;;5047303;28;20218;-78
2022/04/24 03:22:59;;;;;;;16.00;13.05;;;11.20;62.20;;;;;;5034909;28;20211;-78
2022/04/24 03:25:26;;;;;;;14.52;12.98;;;11.20;62.80;;;;;;5037600;28;20258;-76
2022/04/24 03:27:53;;;;;;;14.05;12.50;;;11.00;62.70;;;;;;5043883;28;20231;-77
2022/04/24 03:30:20;;;;;;;17.08;12.85;;;11.00;63.10;;;;;;5034664;28;20234;-76
2022/04/24 03:32:47;;;;;;;14.38;12.43;;;11.00;64.10;;;;;;5034536;28;20211;-77
2022/04/24 03:35:13;;;;;;;16.98;13.40;;;10.90;64.60;;;;;;5033644;28;20253;-76
2022/04/24 03:37:42;;;;;;;14.43;12.20;;;11.00;65.00;;;;;;5033289;28;20322;-76
2022/04/24 03:40:11;;;;;;;14.88;13.07;;;11.00;65.30;;;;;;5032993;28;20210;-77
2022/04/24 03:42:38;;;;;;;13.40;12.00;;;11.00;65.50;;;;;;5033162;28;20203;-78
2022/04/24 03:45:09;;;;;;;14.50;12.88;;;11.00;65.80;;;;;;5033674;28;20258;-77
2022/04/24 03:47:36;;;;;;;14.40;13.00;;;10.90;66.70;;;;;;5033314;28;20273;-77
2022/04/24 03:50:03;;;;;;;15.23;12.70;;;10.90;67.70;;;;;;5032885;28;20579;-77
2022/04/24 03:52:30;;;;;;;15.27;12.57;;;10.90;68.40;;;;;;5033329;28;20203;-77
2022/04/24 03:54:57;;;;;;;13.30;11.90;;;10.90;68.40;;;;;;5033491;28;20555;-77
2022/04/24 03:57:26;;;;;;;13.57;11.20;;;10.90;68.40;;;;;;5033397;28;20226;-77
2022/04/24 03:59:53;;;;;;;16.42;12.88;;;11.00;68.50;;;;;;5033431;28;20302;-77
2022/04/24 04:02:20;;;;;;;14.80;13.10;;;11.10;69.10;;;;;;5033037;28;20307;-78
2022/04/24 04:04:47;;;;;;;14.88;12.95;;;11.20;68.70;;;;;;5033415;28;20203;-78
2022/04/24 04:07:13;;;;;;;14.70;13.20;;;11.20;68.70;;;;;;5033160;28;20198;-78
2022/04/24 04:09:40;;;;;;;14.25;12.20;;;11.30;68.80;;;;;;5037038;28;20257;-77
2022/04/24 04:12:09;;;;;;;15.60;13.18;;;11.30;67.50;;;;;;5037639;28;20307;-77
2022/04/24 04:14:37;;;;;;;13.93;12.52;;;11.30;67.70;;;;;;5037968;28;20272;-77
2022/04/24 04:17:05;;;;;;;16.52;12.10;;;11.30;68.30;;;;;;5037918;28;20281;-77
2022/04/24 04:19:32;;;;;;;15.38;13.38;;;11.40;68.30;;;;;;5037864;28;20215;-77
2022/04/24 04:21:58;;;;;;;14.93;13.10;;;11.40;67.90;;;;;;5039424;28;20294;-78
2022/04/24 04:24:25;;;;;;;15.70;13.10;;;11.40;68.20;;;;;;5044327;28;20293;-78
2022/04/24 04:26:52;;;;;;;22.00;15.48;;;11.40;67.90;;;;;;5060707;28;20208;-78
2022/04/24 04:29:19;;;;;;;18.33;15.77;;;11.50;68.90;;;;;;5058887;28;20210;-77
2022/04/24 04:31:47;;;;;;;21.80;16.80;;;11.50;68.90;;;;;;5043490;28;20306;-77
2022/04/24 04:34:14;;;;;;;21.30;16.90;;;11.40;70.20;;;;;;5042064;28;20571;-77
2022/04/24 04:36:41;;;;;;;20.50;16.42;;;11.40;71.10;;;;;;5044647;28;20275;-77
2022/04/24 04:39:08;;;;;;;20.83;17.38;;;11.40;73.00;;;;;;5045088;28;20760;-77
2022/04/24 04:41:35;;;;;;;22.65;17.75;;;11.50;73.30;;;;;;5045407;28;20235;-78
2022/04/24 04:44:01;;;;;;;21.23;16.65;;;11.50;73.80;;;;;;5049779;28;20234;-77
2022/04/24 04:46:28;;;;;;;25.70;19.20;;;11.40;75.00;;;;;;5048832;28;20737;-77
2022/04/24 04:48:56;;;;;;;24.35;18.23;;;11.40;76.50;;;;;;5043861;28;20277;-77
2022/04/24 04:51:23;;;;;;;19.75;17.65;;;11.30;77.50;;;;;;5037845;28;20209;-77
2022/04/24 04:53:51;;;;;;;23.75;19.15;;;11.20;79.90;;;;;;5036555;28;20210;-77
2022/04/24 04:56:18;;;;;;;22.45;17.83;;;11.20;81.60;;;;;;5036150;28;20330;-76
2022/04/24 04:58:45;;;;;;;21.20;16.90;;;11.20;82.20;;;;;;5036360;28;20253;-77
2022/04/24 05:01:12;;;;;;;21.58;17.85;;;11.20;83.90;;;;;;5036527;28;20213;-77
2022/04/24 05:03:39;;;;;;;21.15;18.05;;;11.20;84.50;;;;;;5036630;28;20257;-78
2022/04/24 05:06:07;;;;;;;21.30;17.92;;;11.10;85.50;;;;;;5036355;28;20234;-77
2022/04/24 05:08:34;;;;;;;25.63;19.23;;;11.10;86.40;;;;;;5036233;28;20204;-77
2022/04/24 05:11:01;;;;;;;21.38;17.40;;;11.10;87.00;;;;;;5036220;28;20207;-78
2022/04/24 05:13:28;;;;;;;22.17;18.02;;;11.10;88.70;;;;;;5035878;28;20203;-78
2022/04/24 05:15:55;;;;;;;21.77;17.50;;;11.10;89.80;;;;;;5035934;28;20317;-78
2022/04/24 05:18:22;;;;;;;27.65;17.85;;;11.00;90.40;;;;;;5035560;28;20332;-78
2022/04/24 05:20:50;;;;;;;20.88;15.80;;;10.90;92.00;;;;;;5035168;28;20249;-78
2022/04/24 05:23:18;;;;;;;17.30;13.63;;;10.90;93.90;;;;;;5036430;28;20212;-78
2022/04/24 05:25:45;;;;;;;15.63;13.07;;;10.80;94.90;;;;;;5036202;28;20269;-78
2022/04/24 05:28:12;;;;;;;14.27;11.93;;;10.70;95.60;;;;;;5036536;28;20233;-79
2022/04/24 05:30:39;;;;;;;12.88;11.45;;;10.70;96.80;;;;;;5039118;28;20211;-79
2022/04/24 05:33:07;;;;;;;10.38;9.27;;;10.60;97.20;;;;;;5038637;28;20214;-78
2022/04/24 05:35:33;;;;;;;12.10;9.63;;;10.50;98.10;;;;;;5036623;28;20237;-78
2022/04/24 05:38:00;;;;;;;10.10;8.77;;;10.40;99.40;;;;;;5037360;28;20227;-77
2022/04/24 05:40:28;;;;;;;13.20;9.40;;;10.40;99.90;;;;;;5036952;28;20250;-78
2022/04/24 05:42:55;;;;;;;11.32;9.07;;;10.40;99.90;;;;;;5036498;28;20203;-78
2022/04/24 05:45:24;;;;;;;10.55;8.02;;;10.30;99.90;;;;;;5036337;28;20231;-78
2022/04/24 05:47:54;;;;;;;12.23;8.45;;;10.20;99.90;;;;;;5036542;28;20207;-78
2022/04/24 05:50:23;;;;;;;13.30;11.02;;;10.20;99.90;;;;;;5036102;28;20207;-78
2022/04/24 05:52:50;;;;;;;13.88;9.85;;;10.20;99.90;;;;;;5037842;28;20225;-78
2022/04/24 05:55:17;;;;;;;13.38;10.65;;;10.10;99.90;;;;;;5039550;28;20232;-79
2022/04/24 05:57:45;;;;;;;16.25;12.00;;;10.20;99.90;;;;;;5037836;28;20310;-78
2022/04/24 06:00:13;;;;;;;15.13;11.30;;;10.10;99.90;;;;;;5040440;28;20214;-78
2022/04/24 06:02:40;;;;;;;13.02;10.68;;;10.10;99.90;;;;;;5039856;28;20211;-78
2022/04/24 06:05:08;;;;;;;9.93;8.65;;;10.20;99.90;;;;;;5045130;28;20585;-80
2022/04/24 06:07:35;;;;;;;12.50;8.70;;;10.20;99.90;;;;;;5050082;28;20233;-78
2022/04/24 06:10:02;;;;;;;9.00;6.95;;;10.30;99.90;;;;;;5048163;28;20206;-80
2022/04/24 06:12:29;;;;;;;11.82;8.52;;;10.20;99.90;;;;;;5052502;28;20245;-80
2022/04/24 06:15:03;;;;;;;14.68;10.45;;;10.20;99.90;;;;;;5054189;28;20386;-80
2022/04/24 06:17:30;;;;;;;19.52;14.02;;;10.20;99.90;;;;;;5053287;28;20239;-78
2022/04/24 06:19:57;;;;;;;18.38;13.50;;;10.10;99.90;;;;;;5047185;28;20206;-79
2022/04/24 06:22:23;;;;;;;16.42;11.40;;;10.10;99.90;;;;;;5036826;28;20309;-78
2022/04/24 06:24:50;;;;;;;12.75;10.27;;;10.10;99.90;;;;;;5035710;28;20635;-78
2022/04/24 06:27:17;;;;;;;7.40;6.25;;;10.10;99.90;;;;;;5035292;28;20211;-78
2022/04/24 06:29:44;;;;;;;6.97;5.30;;;10.00;99.90;;;;;;5035237;28;20203;-77
2022/04/24 06:32:12;;;;;;;5.00;4.00;;;9.90;99.90;;;;;;5034248;28;20211;-77
2022/04/24 06:34:39;;;;;;;4.35;3.60;;;9.80;99.90;;;;;;5035090;28;20899;-78
2022/04/24 06:37:06;;;;;;;3.05;2.55;;;9.80;99.90;;;;;;5034869;28;20644;-78
2022/04/24 06:39:33;;;;;;;2.20;2.00;;;9.70;99.90;;;;;;5034559;28;20310;-78
2022/04/24 06:42:00;;;;;;;1.92;1.70;;;9.70;99.90;;;;;;5035074;28;20229;-78
2022/04/24 06:44:27;;;;;;;1.80;1.70;;;9.70;99.90;;;;;;5034282;28;20303;-76
2022/04/24 06:46:54;;;;;;;1.40;1.30;;;9.70;99.90;;;;;;5034250;28;20250;-77
2022/04/24 06:49:22;;;;;;;1.52;1.42;;;9.70;99.90;;;;;;5034140;28;20203;-77
2022/04/24 06:51:49;;;;;;;1.80;1.30;;;9.70;99.90;;;;;;5034023;28;20199;-77
2022/04/24 06:54:16;;;;;;;1.50;1.10;;;9.70;99.90;;;;;;5034276;28;20215;-77
2022/04/24 06:56:43;;;;;;;1.23;1.08;;;9.70;99.90;;;;;;5034786;28;20245;-76
2022/04/24 06:59:09;;;;;;;3.33;2.20;;;9.70;99.90;;;;;;5033603;28;20261;-77
2022/04/24 07:01:37;;;;;;;1.75;1.30;;;9.80;99.90;;;;;;5034525;28;20211;-77
2022/04/24 07:04:04;;;;;;;1.95;1.13;;;9.90;99.90;;;;;;5034390;28;20211;-76
2022/04/24 07:06:32;;;;;;;1.63;1.50;;;9.80;99.90;;;;;;5033980;28;20234;-75
2022/04/24 07:08:59;;;;;;;1.30;1.20;;;9.80;99.90;;;;;;5033432;28;20588;-75
2022/04/24 07:11:26;;;;;;;1.15;0.90;;;9.80;99.90;;;;;;5033401;28;20211;-75
2022/04/24 07:13:52;;;;;;;1.20;1.20;;;9.80;99.90;;;;;;5034119;28;20302;-75
2022/04/24 07:16:19;;;;;;;1.40;0.90;;;9.80;99.90;;;;;;5033423;28;20233;-75
2022/04/24 07:18:46;;;;;;;1.58;1.05;;;9.80;99.90;;;;;;5033365;28;20790;-74
2022/04/24 07:21:13;;;;;;;0.75;0.75;;;9.80;99.90;;;;;;5033314;28;20578;-75
2022/04/24 07:23:41;;;;;;;1.08;0.98;;;9.80;99.90;;;;;;5033652;28;20564;-75
2022/04/24 07:26:08;;;;;;;1.48;1.10;;;9.70;99.90;;;;;;5033457;28;20636;-75
2022/04/24 07:28:36;;;;;;;4.65;1.30;;;9.70;99.90;;;;;;5034063;28;20207;-75
2022/04/24 07:31:03;;;;;;;1.90;1.80;;;9.80;99.90;;;;;;5035014;28;20215;-75
2022/04/24 07:33:30;;;;;;;1.27;1.20;;;9.90;99.90;;;;;;5035229;28;20219;-76
2022/04/24 07:35:57;;;;;;;3.30;1.35;;;9.90;99.90;;;;;;5052108;28;20312;-75
2022/04/24 07:38:24;;;;;;;1.50;1.40;;;9.90;99.90;;;;;;5055096;28;20207;-75
2022/04/24 07:40:52;;;;;;;2.10;2.00;;;9.90;99.90;;;;;;5055601;28;20200;-75
2022/04/24 07:43:19;;;;;;;1.70;1.60;;;10.00;99.90;;;;;;5056143;28;20207;-75
2022/04/24 07:45:48;;;;;;;1.85;1.70;;;10.10;99.90;;;;;;5040583;28;20317;-75
2022/04/24 07:48:16;;;;;;;2.15;1.88;;;10.10;99.90;;;;;;5039147;28;20195;-75
2022/04/24 07:50:45;;;;;;;2.20;2.10;;;10.10;99.90;;;;;;5036470;28;20278;-75
2022/04/24 07:53:12;;;;;;;2.17;1.77;;;10.20;99.90;;;;;;5036431;28;20207;-75
2022/04/24 07:55:41;;;;;;;3.20;1.70;;;10.30;99.90;;;;;;5035725;28;20943;-75
2022/04/24 07:58:11;;;;;;;1.92;1.55;;;10.20;99.90;;;;;;5035394;28;20227;-77
2022/04/24 08:00:39;;;;;;;2.20;1.70;;;10.30;99.90;;;;;;5033878;28;20222;-75
2022/04/24 08:03:07;;;;;;;2.92;1.98;;;10.30;99.90;;;;;;5041841;28;20242;-75
2022/04/24 08:05:36;;;;;;;1.90;1.50;;;10.30;99.90;;;;;;5052200;28;20223;-75
2022/04/24 08:08:04;;;;;;;1.70;1.60;;;10.20;99.90;;;;;;5054776;28;20229;-75
2022/04/24 08:10:34;;;;;;;1.90;1.80;;;10.20;99.90;;;;;;5034305;28;20214;-75
2022/04/24 08:13:04;;;;;;;1.70;1.60;;;10.20;99.90;;;;;;5034119;28;20218;-76
2022/04/24 08:15:32;;;;;;;1.70;1.60;;;10.30;99.90;;;;;;5032794;28;20258;-75
2022/04/24 08:18:00;;;;;;;3.20;2.10;;;10.40;99.90;;;;;;5033204;28;20243;-75
2022/04/24 08:20:27;;;;;;;2.35;2.20;;;10.50;99.90;;;;;;5033115;28;20662;-74
2022/04/24 08:22:59;;;;;;;3.42;2.22;;;10.60;99.90;;;;;;5036674;28;20689;-74
2022/04/24 08:25:27;;;;;;;2.30;2.20;;;10.50;99.90;;;;;;5042824;28;20231;-75
2022/04/24 08:27:57;;;;;;;2.05;1.92;;;10.60;99.90;;;;;;5045192;28;20561;-75
2022/04/24 08:30:24;;;;;;;1.90;1.80;;;10.60;99.90;;;;;;5049888;28;20231;-76
2022/04/24 08:32:53;;;;;;;2.42;2.22;;;10.60;99.90;;;;;;5047528;28;20207;-76
2022/04/24 08:35:21;;;;;;;1.70;1.60;;;10.60;99.90;;;;;;5043057;28;20223;-76
2022/04/24 08:37:49;;;;;;;1.65;1.55;;;10.50;99.90;;;;;;5034854;28;20208;-75
2022/04/24 08:40:17;;;;;;;1.70;1.60;;;10.50;99.90;;;;;;5032974;28;20322;-76
2022/04/24 08:42:45;;;;;;;3.60;1.35;;;10.50;99.90;;;;;;5034667;28;20207;-75
2022/04/24 08:45:13;;;;;;;1.60;1.17;;;10.50;99.90;;;;;;5033283;28;20250;-75
2022/04/24 08:47:40;;;;;;;3.85;1.30;;;10.50;99.90;;;;;;5032947;28;20203;-75
2022/04/24 08:50:10;;;;;;;2.22;1.40;;;10.30;99.90;;;;;;5032839;28;20204;-74
2022/04/24 08:52:37;;;;;;;1.60;1.50;;;10.30;99.90;;;;;;5033798;28;20207;-75
2022/04/24 08:55:05;;;;;;;1.40;1.30;;;10.30;99.90;;;;;;5034699;28;20233;-75
2022/04/24 08:57:32;;;;;;;1.92;1.67;;;10.30;99.90;;;;;;5037967;28;20218;-75
2022/04/24 09:00:00;;;;;;;2.40;1.60;;;10.40;99.90;;;;;;5044143;28;20231;-75
2022/04/24 09:02:27;;;;;;;1.10;1.10;;;10.30;99.90;;;;;;5036831;28;20219;-74
2022/04/24 09:04:55;;;;;;;3.10;1.45;;;10.30;99.90;;;;;;5036829;28;20237;-75
2022/04/24 09:07:24;;;;;;;2.35;1.38;;;10.30;99.90;;;;;;5036666;28;20298;-76
2022/04/24 09:09:53;;;;;;;1.33;1.30;;;10.20;99.90;;;;;;5036162;28;20213;-74
2022/04/24 09:12:24;;;;;;;1.40;1.30;;;10.20;99.90;;;;;;5037824;28;20218;-75
2022/04/24 09:14:53;;;;;;;3.08;1.40;;;10.20;99.90;;;;;;5038440;28;20278;-75
2022/04/24 09:17:22;;;;;;;1.65;1.40;;;10.10;99.90;;;;;;5037421;28;20679;-74
2022/04/24 09:19:50;;;;;;;1.55;1.45;;;10.10;99.90;;;;;;5039703;28;20297;-76
2022/04/24 09:22:17;;;;;;;1.70;1.60;;;10.10;99.90;;;;;;5044864;28;20273;-75
2022/04/24 09:24:49;;;;;;;1.95;1.30;;;10.10;99.90;;;;;;5041851;28;20733;-75
2022/04/24 09:27:24;;;;;;;2.00;1.30;;;10.10;99.90;;;;;;5043402;28;20211;-75
2022/04/24 09:29:54;;;;;;;2.25;1.55;;;10.00;99.90;;;;;;5043893;28;20207;-75
2022/04/24 09:32:21;;;;;;;1.33;1.23;;;10.10;99.90;;;;;;5042859;28;20294;-76
2022/04/24 09:34:48;;;;;;;1.50;1.40;;;10.10;99.90;;;;;;5039125;28;20672;-75
2022/04/24 09:37:15;;;;;;;1.40;1.30;;;10.10;99.90;;;;;;5038255;28;20207;-75
2022/04/24 09:39:43;;;;;;;1.30;1.27;;;10.10;99.90;;;;;;5041496;28;20315;-76
2022/04/24 09:42:13;;;;;;;1.52;1.42;;;10.20;99.90;;;;;;5052794;28;20207;-75
2022/04/24 09:44:42;;;;;;;1.35;1.25;;;10.20;99.90;;;;;;5055005;28;20203;-74
2022/04/24 09:47:09;;;;;;;1.38;1.27;;;10.20;99.90;;;;;;5055392;28;20238;-73
2022/04/24 09:49:38;;;;;;;1.90;1.65;;;10.10;99.90;;;;;;5052672;28;20191;-75
2022/04/24 09:52:11;;;;;;;1.40;1.15;;;10.10;99.90;;;;;;5047449;28;20226;-74
2022/04/24 09:54:40;;;;;;;1.10;1.10;;;10.10;99.90;;;;;;5050106;28;20215;-76
2022/04/24 09:57:09;;;;;;;1.10;1.10;;;10.00;99.90;;;;;;5036378;28;20651;-74
2022/04/24 09:59:39;;;;;;;1.27;1.27;;;10.00;99.90;;;;;;5035096;28;20231;-74
2022/04/24 10:02:06;;;;;;;1.30;1.30;;;9.90;99.90;;;;;;5034945;28;20257;-74
2022/04/24 10:04:38;;;;;;;1.30;1.30;;;9.90;99.90;;;;;;5034531;28;20306;-74
2022/04/24 10:07:07;;;;;;;1.42;1.10;;;9.90;99.90;;;;;;5033827;28;20293;-74
2022/04/24 10:09:35;;;;;;;1.20;1.20;;;10.00;99.90;;;;;;5034605;28;20210;-75
2022/04/24 10:12:05;;;;;;;2.55;1.30;;;10.00;99.90;;;;;;5034747;28;20318;-75
2022/04/24 10:14:34;;;;;;;3.05;1.48;;;10.00;99.90;;;;;;5034853;28;20208;-75
2022/04/24 10:17:13;;;;;;;2.08;1.88;;;10.00;99.90;;;;;;5036605;28;20318;-74
2022/04/24 10:19:49;;;;;;;1.50;1.40;;;10.00;99.90;;;;;;5034366;28;20226;-74
2022/04/24 10:22:30;;;;;;;1.88;1.77;;;10.00;99.90;;;;;;5036113;28;20249;-74
2022/04/24 10:25:01;;;;;;;2.45;1.33;;;10.10;99.90;;;;;;5038684;28;20306;-74
2022/04/24 10:27:39;;;;;;;1.20;1.20;;;10.10;99.90;;;;;;5035159;28;20203;-73
2022/04/24 10:30:08;;;;;;;1.52;1.42;;;10.00;99.90;;;;;;5033967;28;20381;-75
2022/04/24 10:32:37;;;;;;;2.30;2.10;;;10.10;99.90;;;;;;5034272;28;20233;-74
2022/04/24 10:35:16;;;;;;;2.10;1.90;;;10.10;99.90;;;;;;5034156;28;20259;-74
2022/04/24 10:37:43;;;;;;;2.00;1.90;;;10.00;99.90;;;;;;5034307;28;20241;-74
2022/04/24 10:40:13;;;;;;;1.55;1.45;;;10.00;99.90;;;;;;5036845;28;20285;-75
2022/04/24 10:42:42;;;;;;;2.42;1.75;;;10.00;99.90;;;;;;5034459;28;20559;-75
2022/04/24 10:45:12;;;;;;;2.13;1.90;;;9.90;99.90;;;;;;5035316;28;20227;-76
2022/04/24 10:47:55;;;;;;;1.70;1.60;;;10.00;99.90;;;;;;5035064;28;20253;-75
2022/04/24 10:50:23;;;;;;;1.65;1.55;;;10.00;99.90;;;;;;5036507;28;20256;-75
2022/04/24 10:52:53;;;;;;;1.92;1.60;;;10.00;99.90;;;;;;5035304;28;20297;-75
2022/04/24 10:55:25;;;;;;;2.13;1.90;;;10.10;99.90;;;;;;5036453;28;20230;-75
2022/04/24 10:57:57;;;;;;;2.33;1.70;;;10.10;99.90;;;;;;5048170;28;20211;-75
2022/04/24 11:00:31;;;;;;;1.90;1.80;;;10.10;99.90;;;;;;5047630;28;20215;-75
2022/04/24 11:03:08;;;;;;;2.17;1.75;;;10.00;99.90;;;;;;5056531;28;20237;-75
2022/04/24 11:05:40;;;;;;;2.30;2.10;;;9.90;99.90;;;;;;5056491;28;20249;-75
2022/04/24 11:08:09;;;;;;;1.48;1.38;;;10.00;99.90;;;;;;5057211;28;20221;-76
2022/04/24 11:10:40;;;;;;;1.92;1.83;;;10.00;99.90;;;;;;5056487;28;20223;-75
2022/04/24 11:13:10;;;;;;;4.57;3.20;;;10.00;99.90;;;;;;5055238;28;20230;-75
2022/04/24 11:15:42;;;;;;;1.48;1.38;;;10.20;99.90;;;;;;5054046;28;20223;-75
2022/04/24 11:18:22;;;;;;;1.30;1.20;;;10.20;99.90;;;;;;5052891;28;20234;-74
2022/04/24 11:20:58;;;;;;;1.70;1.60;;;10.20;99.90;;;;;;5035613;28;20273;-75
2022/04/24 11:23:29;;;;;;;1.60;1.50;;;10.20;99.90;;;;;;5037214;28;20210;-75
2022/04/24 11:25:58;;;;;;;1.33;1.25;;;10.20;99.90;;;;;;5037864;28;20223;-75
2022/04/24 11:28:35;;;;;;;1.58;1.48;;;10.20;99.90;;;;;;5033939;28;20207;-75
2022/04/24 11:31:17;;;;;;;1.15;1.13;;;10.20;99.90;;;;;;5033396;28;20701;-75
2022/04/24 11:33:54;;;;;;;1.60;1.50;;;10.20;99.90;;;;;;5031700;28;20211;-75
2022/04/24 11:36:22;;;;;;;1.67;1.55;;;10.20;99.90;;;;;;5034157;28;20264;-76
2022/04/24 11:38:50;;;;;;;2.20;1.17;;;10.20;99.90;;;;;;5035403;28;20217;-75
2022/04/24 11:41:18;;;;;;;1.40;1.30;;;10.20;99.90;;;;;;5038014;28;20238;-75
2022/04/24 11:43:45;;;;;;;1.52;1.42;;;10.20;99.90;;;;;;5037107;28;20221;-76
2022/04/24 11:51:42;;;;;;;1.42;1.33;;;10.30;99.90;;;;;;5033877;28;20193;-75
2022/04/24 11:54:11;;;;;;;1.65;1.55;;;10.30;99.90;;;;;;5033496;28;20203;-74
2022/04/24 11:56:39;;;;;;;1.30;1.20;;;10.30;99.90;;;;;;5032512;28;20289;-75
2022/04/24 11:59:14;;;;;;;2.22;2.03;;;10.40;99.90;;;;;;5032864;28;20565;-75
2022/04/24 12:01:41;;;;;;;1.35;1.33;;;10.50;99.90;;;;;;5032864;28;20229;-75
2022/04/24 12:04:09;;;;;;;1.75;1.23;;;10.60;99.90;;;;;;5033726;28;20211;-76
2022/04/24 12:06:36;;;;;;;1.70;1.35;;;10.70;99.90;;;;;;5033987;28;20218;-76
2022/04/24 12:09:10;;;;;;;2.00;1.75;;;10.70;99.90;;;;;;5034613;28;20230;-76
2022/04/24 12:11:37;;;;;;;1.48;1.38;;;10.70;99.90;;;;;;5036043;28;20234;-77
2022/04/24 12:14:07;;;;;;;1.83;1.60;;;10.80;99.90;;;;;;5038015;28;20211;-75
2022/04/24 12:16:34;;;;;;;2.40;1.20;;;10.80;99.90;;;;;;5054463;28;20261;-75
2022/04/24 12:19:03;;;;;;;1.75;1.65;;;10.80;99.90;;;;;;5033160;28;20302;-75
2022/04/24 12:21:32;;;;;;;1.83;1.73;;;10.80;99.90;;;;;;5032567;28;20234;-75
2022/04/24 12:24:00;;;;;;;2.17;1.80;;;10.90;99.90;;;;;;5032779;28;20202;-75
2022/04/24 12:26:27;;;;;;;1.95;1.73;;;10.90;99.90;;;;;;5031916;28;20757;-75
2022/04/24 12:28:54;;;;;;;1.63;1.52;;;10.90;99.90;;;;;;5032862;28;20207;-73
2022/04/24 12:31:23;;;;;;;2.15;1.60;;;10.90;99.90;;;;;;5036296;28;20293;-74
2022/04/24 12:33:53;;;;;;;1.90;1.80;;;10.80;99.90;;;;;;5037195;28;20227;-74
2022/04/24 12:36:21;;;;;;;1.77;1.63;;;10.80;99.90;;;;;;5037840;28;20297;-75
2022/04/24 12:38:57;;;;;;;2.10;1.90;;;10.80;99.90;;;;;;5037144;28;20217;-74
2022/04/24 12:41:25;;;;;;;2.15;1.60;;;10.80;99.90;;;;;;5036651;28;20322;-74
2022/04/24 12:43:52;;;;;;;2.03;1.83;;;10.80;99.90;;;;;;5037177;28;20250;-73
2022/04/24 12:46:19;;;;;;;6.00;2.10;;;10.90;99.90;;;;;;5038465;28;20229;-75
2022/04/24 12:48:48;;;;;;;2.15;1.95;;;10.90;99.90;;;;;;5037892;28;20203;-74